sensor_id;sensor_type;location;lat;lon;timestamp;pressure;altitude;pressure_sealevel;temperature;humidity
28027;BME280;15344;52.342;-1.290;2022-07-06T00:00:26;101431.58;;;18.54;59.72
28027;BME280;15344;52.342;-1.290;2022-07-06T00:02:51;101426.46;;;19.02;58.13
28027;BME280;15344;52.342;-1.290;2022-07-06T00:05:17;101430.69;;;20.23;53.28
28027;BME280;15344;52.342;-1.290;2022-07-06T00:07:42;101426.91;;;19.72;56.43
28027;BME280;15344;52.342;-1.290;2022-07-06T00:10:08;101424.78;;;19.29;54.50
28027;BME280;15344;52.342;-1.290;2022-07-06T00:12:33;101423.15;;;19.65;55.86
28027;BME280;15344;52.342;-1.290;2022-07-06T00:14:58;101422.09;;;19.77;54.23
28027;BME280;15344;52.342;-1.290;2022-07-06T00:17:23;101415.54;;;19.69;55.25
28027;BME280;15344;52.342;-1.290;2022-07-06T00:19:48;101414.23;;;20.15;54.98
28027;BME280;15344;52.342;-1.290;2022-07-06T00:22:14;101409.07;;;19.74;55.29
28027;BME280;15344;52.342;-1.290;2022-07-06T00:24:39;101413.19;;;20.43;52.85
28027;BME280;15344;52.342;-1.290;2022-07-06T00:27:04;101412.65;;;20.68;53.26
28027;BME280;15344;52.342;-1.290;2022-07-06T00:29:30;101409.85;;;20.44;54.73
28027;BME280;15344;52.342;-1.290;2022-07-06T00:31:55;101407.28;;;19.46;55.78
28027;BME280;15344;52.342;-1.290;2022-07-06T00:34:20;101405.53;;;20.45;53.71
28027;BME280;15344;52.342;-1.290;2022-07-06T00:36:45;101405.67;;;20.59;54.35
28027;BME280;15344;52.342;-1.290;2022-07-06T00:39:10;101398.65;;;20.51;53.31
28027;BME280;15344;52.342;-1.290;2022-07-06T00:41:35;101399.97;;;20.43;54.13
28027;BME280;15344;52.342;-1.290;2022-07-06T00:44:04;101400.67;;;19.86;53.53
28027;BME280;15344;52.342;-1.290;2022-07-06T00:46:28;101400.06;;;20.17;54.40
28027;BME280;15344;52.342;-1.290;2022-07-06T00:48:51;101396.09;;;20.43;53.00
28027;BME280;15344;52.342;-1.290;2022-07-06T00:51:17;101393.53;;;20.53;53.76
28027;BME280;15344;52.342;-1.290;2022-07-06T00:53:42;101393.96;;;20.68;54.24
28027;BME280;15344;52.342;-1.290;2022-07-06T00:56:07;101394.67;;;20.30;52.65
28027;BME280;15344;52.342;-1.290;2022-07-06T00:58:33;101392.82;;;20.11;52.79
28027;BME280;15344;52.342;-1.290;2022-07-06T01:00:57;101392.33;;;19.66;54.32
28027;BME280;15344;52.342;-1.290;2022-07-06T01:03:23;101398.75;;;19.87;53.81
28027;BME280;15344;52.342;-1.290;2022-07-06T01:05:50;101391.50;;;20.74;53.20
28027;BME280;15344;52.342;-1.290;2022-07-06T01:08:14;101388.99;;;20.26;53.66
28027;BME280;15344;52.342;-1.290;2022-07-06T01:10:39;101391.13;;;20.93;53.25
28027;BME280;15344;52.342;-1.290;2022-07-06T01:13:04;101400.12;;;20.74;52.49
28027;BME280;15344;52.342;-1.290;2022-07-06T01:15:30;101404.44;;;20.25;52.35
28027;BME280;15344;52.342;-1.290;2022-07-06T01:17:55;101402.34;;;19.30;53.91
28027;BME280;15344;52.342;-1.290;2022-07-06T01:20:22;101410.64;;;19.97;53.44
28027;BME280;15344;52.342;-1.290;2022-07-06T01:22:47;101413.83;;;20.37;52.44
28027;BME280;15344;52.342;-1.290;2022-07-06T01:25:11;101409.42;;;19.45;53.87
28027;BME280;15344;52.342;-1.290;2022-07-06T01:27:37;101409.19;;;19.05;56.10
28027;BME280;15344;52.342;-1.290;2022-07-06T01:30:01;101407.40;;;18.69;57.84
28027;BME280;15344;52.342;-1.290;2022-07-06T01:32:26;101411.22;;;18.12;60.22
28027;BME280;15344;52.342;-1.290;2022-07-06T01:34:52;101409.68;;;18.30;59.23
28027;BME280;15344;52.342;-1.290;2022-07-06T01:37:17;101410.69;;;18.85;59.22
28027;BME280;15344;52.342;-1.290;2022-07-06T01:39:42;101407.78;;;19.46;59.33
28027;BME280;15344;52.342;-1.290;2022-07-06T01:42:07;101401.51;;;18.79;59.26
28027;BME280;15344;52.342;-1.290;2022-07-06T01:44:32;101398.86;;;20.56;55.99
28027;BME280;15344;52.342;-1.290;2022-07-06T01:46:58;101403.30;;;19.71;56.90
28027;BME280;15344;52.342;-1.290;2022-07-06T01:49:23;101402.08;;;20.57;56.41
28027;BME280;15344;52.342;-1.290;2022-07-06T01:51:48;101402.56;;;19.74;57.79
28027;BME280;15344;52.342;-1.290;2022-07-06T01:54:14;101399.21;;;19.68;57.67
28027;BME280;15344;52.342;-1.290;2022-07-06T01:56:39;101400.17;;;19.89;57.90
28027;BME280;15344;52.342;-1.290;2022-07-06T01:59:04;101400.95;;;20.33;55.98
28027;BME280;15344;52.342;-1.290;2022-07-06T02:01:30;101399.93;;;20.56;56.43
28027;BME280;15344;52.342;-1.290;2022-07-06T02:03:55;101398.48;;;20.64;54.94
28027;BME280;15344;52.342;-1.290;2022-07-06T02:06:20;101399.39;;;20.70;55.40
28027;BME280;15344;52.342;-1.290;2022-07-06T02:08:45;101397.52;;;20.22;55.38
28027;BME280;15344;52.342;-1.290;2022-07-06T02:11:10;101394.67;;;20.53;55.22
28027;BME280;15344;52.342;-1.290;2022-07-06T02:13:36;101388.73;;;20.89;54.91
28027;BME280;15344;52.342;-1.290;2022-07-06T02:16:00;101386.57;;;20.60;55.04
28027;BME280;15344;52.342;-1.290;2022-07-06T02:18:27;101388.97;;;19.01;58.76
28027;BME280;15344;52.342;-1.290;2022-07-06T02:20:52;101377.75;;;21.31;55.41
28027;BME280;15344;52.342;-1.290;2022-07-06T02:23:16;101373.23;;;20.61;55.66
28027;BME280;15344;52.342;-1.290;2022-07-06T02:25:42;101372.28;;;21.11;54.53
28027;BME280;15344;52.342;-1.290;2022-07-06T02:28:07;101372.37;;;21.03;53.95
28027;BME280;15344;52.342;-1.290;2022-07-06T02:30:32;101375.18;;;21.41;54.77
28027;BME280;15344;52.342;-1.290;2022-07-06T02:32:57;101370.19;;;20.86;54.86
28027;BME280;15344;52.342;-1.290;2022-07-06T02:35:23;101371.18;;;21.08;56.16
28027;BME280;15344;52.342;-1.290;2022-07-06T02:37:49;101372.26;;;21.28;56.07
28027;BME280;15344;52.342;-1.290;2022-07-06T02:40:13;101368.54;;;21.46;54.62
28027;BME280;15344;52.342;-1.290;2022-07-06T02:42:39;101366.85;;;21.61;55.07
28027;BME280;15344;52.342;-1.290;2022-07-06T02:45:04;101364.05;;;21.00;54.69
28027;BME280;15344;52.342;-1.290;2022-07-06T02:47:29;101369.42;;;21.57;54.61
28027;BME280;15344;52.342;-1.290;2022-07-06T02:49:55;101370.35;;;21.35;54.91
28027;BME280;15344;52.342;-1.290;2022-07-06T02:52:19;101372.33;;;21.30;55.48
28027;BME280;15344;52.342;-1.290;2022-07-06T02:54:45;101365.72;;;21.26;54.92
28027;BME280;15344;52.342;-1.290;2022-07-06T02:57:10;101358.26;;;21.55;54.59
28027;BME280;15344;52.342;-1.290;2022-07-06T02:59:35;101351.44;;;21.34;51.32
28027;BME280;15344;52.342;-1.290;2022-07-06T03:02:01;101346.34;;;20.69;52.16
28027;BME280;15344;52.342;-1.290;2022-07-06T03:04:25;101343.42;;;20.90;52.59
28027;BME280;15344;52.342;-1.290;2022-07-06T03:06:51;101337.90;;;20.92;51.47
28027;BME280;15344;52.342;-1.290;2022-07-06T03:09:15;101339.69;;;20.05;53.56
28027;BME280;15344;52.342;-1.290;2022-07-06T03:11:41;101339.22;;;19.91;54.83
28027;BME280;15344;52.342;-1.290;2022-07-06T03:14:06;101338.52;;;19.52;56.34
28027;BME280;15344;52.342;-1.290;2022-07-06T03:16:31;101336.50;;;19.35;57.29
28027;BME280;15344;52.342;-1.290;2022-07-06T03:18:56;101336.97;;;18.93;59.14
28027;BME280;15344;52.342;-1.290;2022-07-06T03:21:21;101340.63;;;18.89;59.56
28027;BME280;15344;52.342;-1.290;2022-07-06T03:23:46;101341.88;;;19.28;58.21
28027;BME280;15344;52.342;-1.290;2022-07-06T03:26:12;101346.18;;;19.26;58.01
28027;BME280;15344;52.342;-1.290;2022-07-06T03:28:37;101344.34;;;19.36;57.88
28027;BME280;15344;52.342;-1.290;2022-07-06T03:31:02;101334.88;;;18.64;58.74
28027;BME280;15344;52.342;-1.290;2022-07-06T03:33:27;101331.28;;;19.08;60.82
28027;BME280;15344;52.342;-1.290;2022-07-06T03:35:54;101332.06;;;18.76;61.31
28027;BME280;15344;52.342;-1.290;2022-07-06T03:38:18;101339.71;;;18.63;62.00
28027;BME280;15344;52.342;-1.290;2022-07-06T03:40:43;101345.36;;;18.93;62.60
28027;BME280;15344;52.342;-1.290;2022-07-06T03:43:08;101348.90;;;19.04;61.88
28027;BME280;15344;52.342;-1.290;2022-07-06T03:45:33;101351.53;;;19.00;61.21
28027;BME280;15344;52.342;-1.290;2022-07-06T03:47:59;101353.81;;;18.49;62.17
28027;BME280;15344;52.342;-1.290;2022-07-06T03:50:25;101355.33;;;18.88;61.14
28027;BME280;15344;52.342;-1.290;2022-07-06T03:52:50;101356.42;;;19.36;60.51
28027;BME280;15344;52.342;-1.290;2022-07-06T03:55:15;101360.33;;;18.78;61.56
28027;BME280;15344;52.342;-1.290;2022-07-06T03:57:41;101360.68;;;18.34;62.46
28027;BME280;15344;52.342;-1.290;2022-07-06T04:00:08;101363.96;;;17.03;65.63
28027;BME280;15344;52.342;-1.290;2022-07-06T04:02:31;101362.97;;;18.29;62.46
28027;BME280;15344;52.342;-1.290;2022-07-06T04:04:56;101369.11;;;18.95;60.51
28027;BME280;15344;52.342;-1.290;2022-07-06T04:07:21;101369.64;;;19.53;59.51
28027;BME280;15344;52.342;-1.290;2022-07-06T04:09:46;101369.38;;;19.15;61.04
28027;BME280;15344;52.342;-1.290;2022-07-06T04:12:12;101366.52;;;18.99;60.67
28027;BME280;15344;52.342;-1.290;2022-07-06T04:14:37;101368.45;;;19.02;61.59
28027;BME280;15344;52.342;-1.290;2022-07-06T04:17:03;101367.51;;;18.38;62.92
28027;BME280;15344;52.342;-1.290;2022-07-06T04:19:27;101366.81;;;18.71;63.37
28027;BME280;15344;52.342;-1.290;2022-07-06T04:21:53;101371.30;;;18.14;65.88
28027;BME280;15344;52.342;-1.290;2022-07-06T04:24:18;101369.53;;;19.12;62.65
28027;BME280;15344;52.342;-1.290;2022-07-06T04:26:43;101363.33;;;18.79;63.55
28027;BME280;15344;52.342;-1.290;2022-07-06T04:29:08;101364.54;;;18.64;63.04
28027;BME280;15344;52.342;-1.290;2022-07-06T04:31:33;101361.47;;;18.86;64.16
28027;BME280;15344;52.342;-1.290;2022-07-06T04:33:58;101366.02;;;18.48;64.48
28027;BME280;15344;52.342;-1.290;2022-07-06T04:36:25;101369.08;;;18.81;63.58
28027;BME280;15344;52.342;-1.290;2022-07-06T04:38:49;101365.37;;;19.13;64.39
28027;BME280;15344;52.342;-1.290;2022-07-06T04:41:14;101359.67;;;19.20;67.17
28027;BME280;15344;52.342;-1.290;2022-07-06T04:43:39;101361.90;;;19.42;65.74
28027;BME280;15344;52.342;-1.290;2022-07-06T04:46:04;101367.03;;;18.99;65.81
28027;BME280;15344;52.342;-1.290;2022-07-06T04:48:31;101359.89;;;19.52;65.23
28027;BME280;15344;52.342;-1.290;2022-07-06T04:50:55;101363.39;;;18.84;66.73
28027;BME280;15344;52.342;-1.290;2022-07-06T04:53:20;101361.19;;;18.23;68.26
28027;BME280;15344;52.342;-1.290;2022-07-06T04:55:45;101362.49;;;18.90;68.23
28027;BME280;15344;52.342;-1.290;2022-07-06T04:58:11;101354.84;;;19.06;66.28
28027;BME280;15344;52.342;-1.290;2022-07-06T05:00:36;101353.86;;;18.58;70.20
28027;BME280;15344;52.342;-1.290;2022-07-06T05:03:01;101358.27;;;18.61;69.39
28027;BME280;15344;52.342;-1.290;2022-07-06T05:05:26;101366.03;;;18.54;70.02
28027;BME280;15344;52.342;-1.290;2022-07-06T05:07:52;101368.50;;;18.71;70.26
28027;BME280;15344;52.342;-1.290;2022-07-06T05:10:17;101370.14;;;19.40;66.93
28027;BME280;15344;52.342;-1.290;2022-07-06T05:12:42;101365.44;;;18.44;69.99
28027;BME280;15344;52.342;-1.290;2022-07-06T05:15:09;101367.98;;;18.22;70.71
28027;BME280;15344;52.342;-1.290;2022-07-06T05:17:33;101362.57;;;18.68;69.90
28027;BME280;15344;52.342;-1.290;2022-07-06T05:19:58;101364.97;;;19.13;67.71
28027;BME280;15344;52.342;-1.290;2022-07-06T05:22:24;101364.58;;;19.65;66.03
28027;BME280;15344;52.342;-1.290;2022-07-06T05:24:48;101363.87;;;19.39;67.44
28027;BME280;15344;52.342;-1.290;2022-07-06T05:27:13;101364.37;;;19.89;66.57
28027;BME280;15344;52.342;-1.290;2022-07-06T05:29:39;101365.59;;;19.71;66.49
28027;BME280;15344;52.342;-1.290;2022-07-06T05:32:04;101367.26;;;19.51;68.11
28027;BME280;15344;52.342;-1.290;2022-07-06T05:34:29;101375.95;;;20.24;66.92
28027;BME280;15344;52.342;-1.290;2022-07-06T05:36:55;101377.51;;;20.25;66.95
28027;BME280;15344;52.342;-1.290;2022-07-06T05:39:20;101375.81;;;19.43;69.26
28027;BME280;15344;52.342;-1.290;2022-07-06T05:41:45;101379.57;;;19.05;71.64
28027;BME280;15344;52.342;-1.290;2022-07-06T05:44:10;101383.45;;;19.79;68.55
28027;BME280;15344;52.342;-1.290;2022-07-06T05:46:36;101378.61;;;19.91;67.82
28027;BME280;15344;52.342;-1.290;2022-07-06T05:49:01;101380.98;;;19.71;68.19
28027;BME280;15344;52.342;-1.290;2022-07-06T05:51:26;101384.85;;;19.08;70.55
28027;BME280;15344;52.342;-1.290;2022-07-06T05:53:52;101387.80;;;20.43;67.38
28027;BME280;15344;52.342;-1.290;2022-07-06T05:56:16;101388.51;;;19.83;69.69
28027;BME280;15344;52.342;-1.290;2022-07-06T05:58:41;101387.93;;;19.15;72.99
28027;BME280;15344;52.342;-1.290;2022-07-06T06:01:07;101382.97;;;19.14;73.74
28027;BME280;15344;52.342;-1.290;2022-07-06T06:03:32;101384.37;;;17.97;77.06
28027;BME280;15344;52.342;-1.290;2022-07-06T06:05:57;101386.89;;;18.64;75.14
28027;BME280;15344;52.342;-1.290;2022-07-06T06:08:24;101389.68;;;19.71;72.36
28027;BME280;15344;52.342;-1.290;2022-07-06T06:10:48;101380.84;;;19.38;74.09
28027;BME280;15344;52.342;-1.290;2022-07-06T06:13:13;101389.51;;;19.84;71.71
28027;BME280;15344;52.342;-1.290;2022-07-06T06:15:39;101392.99;;;20.15;70.88
28027;BME280;15344;52.342;-1.290;2022-07-06T06:18:04;101393.28;;;18.32;77.28
28027;BME280;15344;52.342;-1.290;2022-07-06T06:20:30;101392.86;;;18.61;77.64
28027;BME280;15344;52.342;-1.290;2022-07-06T06:22:57;101384.79;;;18.10;77.78
28027;BME280;15344;52.342;-1.290;2022-07-06T06:25:21;101387.71;;;18.74;77.37
28027;BME280;15344;52.342;-1.290;2022-07-06T06:27:45;101391.09;;;18.35;79.09
28027;BME280;15344;52.342;-1.290;2022-07-06T06:30:11;101393.03;;;17.96;81.58
28027;BME280;15344;52.342;-1.290;2022-07-06T06:32:36;101401.79;;;18.76;77.48
28027;BME280;15344;52.342;-1.290;2022-07-06T06:35:01;101409.07;;;19.27;76.66
28027;BME280;15344;52.342;-1.290;2022-07-06T06:37:26;101406.97;;;19.90;73.65
28027;BME280;15344;52.342;-1.290;2022-07-06T06:39:52;101399.84;;;19.38;75.01
28027;BME280;15344;52.342;-1.290;2022-07-06T06:42:17;101396.35;;;19.52;74.75
28027;BME280;15344;52.342;-1.290;2022-07-06T06:44:41;101395.60;;;19.55;75.84
28027;BME280;15344;52.342;-1.290;2022-07-06T06:47:06;101393.74;;;20.14;73.78
28027;BME280;15344;52.342;-1.290;2022-07-06T06:49:31;101391.42;;;20.31;72.86
28027;BME280;15344;52.342;-1.290;2022-07-06T06:51:57;101383.00;;;20.33;70.67
28027;BME280;15344;52.342;-1.290;2022-07-06T06:54:23;101390.62;;;20.04;71.80
28027;BME280;15344;52.342;-1.290;2022-07-06T06:56:48;101390.40;;;20.09;73.05
28027;BME280;15344;52.342;-1.290;2022-07-06T06:59:13;101384.82;;;21.21;69.76
28027;BME280;15344;52.342;-1.290;2022-07-06T07:01:38;101386.72;;;21.37;69.56
28027;BME280;15344;52.342;-1.290;2022-07-06T07:04:03;101388.46;;;20.97;69.46
28027;BME280;15344;52.342;-1.290;2022-07-06T07:06:29;101393.76;;;21.53;67.74
28027;BME280;15344;52.342;-1.290;2022-07-06T07:08:54;101398.47;;;21.65;68.12
28027;BME280;15344;52.342;-1.290;2022-07-06T07:11:20;101402.47;;;20.90;70.08
28027;BME280;15344;52.342;-1.290;2022-07-06T07:14:01;101404.06;;;21.30;69.78
28027;BME280;15344;52.342;-1.290;2022-07-06T07:16:09;101401.80;;;22.01;66.88
28027;BME280;15344;52.342;-1.290;2022-07-06T07:18:34;101402.50;;;21.03;70.54
28027;BME280;15344;52.342;-1.290;2022-07-06T07:20:59;101403.87;;;20.81;70.26
28027;BME280;15344;52.342;-1.290;2022-07-06T07:23:25;101400.23;;;21.02;70.23
28027;BME280;15344;52.342;-1.290;2022-07-06T07:25:50;101397.13;;;21.26;69.92
28027;BME280;15344;52.342;-1.290;2022-07-06T07:28:15;101395.32;;;21.09;70.75
28027;BME280;15344;52.342;-1.290;2022-07-06T07:30:40;101390.98;;;21.42;68.36
28027;BME280;15344;52.342;-1.290;2022-07-06T07:33:05;101389.91;;;21.31;70.11
28027;BME280;15344;52.342;-1.290;2022-07-06T07:35:30;101392.60;;;20.97;70.75
28027;BME280;15344;52.342;-1.290;2022-07-06T07:37:56;101391.78;;;20.65;73.54
28027;BME280;15344;52.342;-1.290;2022-07-06T07:40:20;101389.43;;;21.05;72.83
28027;BME280;15344;52.342;-1.290;2022-07-06T07:42:46;101381.45;;;22.05;69.40
28027;BME280;15344;52.342;-1.290;2022-07-06T07:45:10;101378.53;;;20.61;72.37
28027;BME280;15344;52.342;-1.290;2022-07-06T07:47:36;101376.69;;;22.33;67.39
28027;BME280;15344;52.342;-1.290;2022-07-06T07:50:01;101372.23;;;21.19;70.13
28027;BME280;15344;52.342;-1.290;2022-07-06T07:52:26;101374.21;;;21.16;70.22
28027;BME280;15344;52.342;-1.290;2022-07-06T07:54:52;101367.86;;;21.90;69.06
28027;BME280;15344;52.342;-1.290;2022-07-06T07:57:17;101365.68;;;21.88;68.46
28027;BME280;15344;52.342;-1.290;2022-07-06T07:59:41;101358.40;;;23.23;65.37
28027;BME280;15344;52.342;-1.290;2022-07-06T08:02:06;101354.29;;;23.68;65.68
28027;BME280;15344;52.342;-1.290;2022-07-06T08:04:31;101346.36;;;22.92;65.27
28027;BME280;15344;52.342;-1.290;2022-07-06T08:06:58;101342.20;;;22.39;64.36
28027;BME280;15344;52.342;-1.290;2022-07-06T08:09:21;101343.49;;;22.34;66.85
28027;BME280;15344;52.342;-1.290;2022-07-06T08:11:46;101346.47;;;22.65;65.84
28027;BME280;15344;52.342;-1.290;2022-07-06T08:14:11;101346.85;;;20.32;69.50
28027;BME280;15344;52.342;-1.290;2022-07-06T08:16:36;101340.12;;;20.50;71.85
28027;BME280;15344;52.342;-1.290;2022-07-06T08:19:02;101336.74;;;20.61;72.26
28027;BME280;15344;52.342;-1.290;2022-07-06T08:21:27;101336.79;;;20.15;73.24
28027;BME280;15344;52.342;-1.290;2022-07-06T08:23:54;101339.27;;;22.02;70.33
28027;BME280;15344;52.342;-1.290;2022-07-06T08:26:17;101337.73;;;23.39;64.69
28027;BME280;15344;52.342;-1.290;2022-07-06T08:28:42;101339.70;;;23.38;62.58
28027;BME280;15344;52.342;-1.290;2022-07-06T08:31:07;101334.42;;;21.93;64.61
28027;BME280;15344;52.342;-1.290;2022-07-06T08:33:32;101344.79;;;22.31;62.78
28027;BME280;15344;52.342;-1.290;2022-07-06T08:35:57;101350.74;;;21.20;65.28
28027;BME280;15344;52.342;-1.290;2022-07-06T08:38:22;101350.26;;;22.37;63.26
28027;BME280;15344;52.342;-1.290;2022-07-06T08:40:49;101350.97;;;22.93;62.59
28027;BME280;15344;52.342;-1.290;2022-07-06T08:43:12;101349.39;;;22.49;62.07
28027;BME280;15344;52.342;-1.290;2022-07-06T08:45:37;101342.89;;;21.62;65.56
28027;BME280;15344;52.342;-1.290;2022-07-06T08:48:06;101347.31;;;23.51;61.90
28027;BME280;15344;52.342;-1.290;2022-07-06T08:50:27;101345.28;;;22.78;64.34
28027;BME280;15344;52.342;-1.290;2022-07-06T08:52:53;101348.22;;;22.21;63.35
28027;BME280;15344;52.342;-1.290;2022-07-06T08:55:17;101352.02;;;21.66;67.12
28027;BME280;15344;52.342;-1.290;2022-07-06T08:57:42;101351.59;;;22.13;65.84
28027;BME280;15344;52.342;-1.290;2022-07-06T09:00:08;101353.73;;;23.09;62.64
28027;BME280;15344;52.342;-1.290;2022-07-06T09:02:32;101350.63;;;20.80;67.57
28027;BME280;15344;52.342;-1.290;2022-07-06T09:04:58;101349.70;;;20.19;68.06
28027;BME280;15344;52.342;-1.290;2022-07-06T09:07:24;101341.47;;;22.62;64.66
28027;BME280;15344;52.342;-1.290;2022-07-06T09:09:49;101348.27;;;20.25;69.65
28027;BME280;15344;52.342;-1.290;2022-07-06T09:12:13;101347.08;;;22.19;65.17
28027;BME280;15344;52.342;-1.290;2022-07-06T09:14:38;101346.37;;;22.93;62.68
28027;BME280;15344;52.342;-1.290;2022-07-06T09:17:05;101340.98;;;21.49;66.25
28027;BME280;15344;52.342;-1.290;2022-07-06T09:19:28;101337.89;;;22.72;62.94
28027;BME280;15344;52.342;-1.290;2022-07-06T09:21:54;101340.08;;;21.88;64.12
28027;BME280;15344;52.342;-1.290;2022-07-06T09:24:19;101342.80;;;22.88;63.75
28027;BME280;15344;52.342;-1.290;2022-07-06T09:26:45;101338.59;;;22.25;64.60
28027;BME280;15344;52.342;-1.290;2022-07-06T09:29:08;101341.91;;;21.75;66.43
28027;BME280;15344;52.342;-1.290;2022-07-06T09:31:34;101341.92;;;22.05;64.50
28027;BME280;15344;52.342;-1.290;2022-07-06T09:34:00;101345.64;;;22.36;62.73
28027;BME280;15344;52.342;-1.290;2022-07-06T09:38:49;101336.07;;;21.89;64.79
28027;BME280;15344;52.342;-1.290;2022-07-06T09:41:14;101332.32;;;21.57;66.22
28027;BME280;15344;52.342;-1.290;2022-07-06T09:43:39;101325.27;;;22.50;65.14
28027;BME280;15344;52.342;-1.290;2022-07-06T09:46:04;101330.93;;;22.71;61.74
28027;BME280;15344;52.342;-1.290;2022-07-06T09:48:29;101329.97;;;21.36;67.29
28027;BME280;15344;52.342;-1.290;2022-07-06T09:50:56;101332.47;;;21.94;63.09
28027;BME280;15344;52.342;-1.290;2022-07-06T09:53:20;101331.04;;;22.43;63.71
28027;BME280;15344;52.342;-1.290;2022-07-06T09:55:45;101325.62;;;23.37;61.97
28027;BME280;15344;52.342;-1.290;2022-07-06T09:58:09;101318.56;;;22.37;62.93
28027;BME280;15344;52.342;-1.290;2022-07-06T10:00:35;101316.97;;;22.49;62.83
28027;BME280;15344;52.342;-1.290;2022-07-06T10:03:00;101319.85;;;22.01;63.15
28027;BME280;15344;52.342;-1.290;2022-07-06T10:05:25;101319.92;;;22.61;63.00
28027;BME280;15344;52.342;-1.290;2022-07-06T10:07:50;101317.06;;;22.19;65.42
28027;BME280;15344;52.342;-1.290;2022-07-06T10:10:15;101325.02;;;22.71;61.89
28027;BME280;15344;52.342;-1.290;2022-07-06T10:12:40;101325.96;;;22.61;62.88
28027;BME280;15344;52.342;-1.290;2022-07-06T10:15:05;101328.82;;;23.23;59.65
28027;BME280;15344;52.342;-1.290;2022-07-06T10:17:30;101329.21;;;23.49;58.49
28027;BME280;15344;52.342;-1.290;2022-07-06T10:19:55;101329.95;;;23.21;59.55
28027;BME280;15344;52.342;-1.290;2022-07-06T10:22:20;101334.23;;;24.16;59.73
28027;BME280;15344;52.342;-1.290;2022-07-06T10:24:45;101334.64;;;23.74;59.19
28027;BME280;15344;52.342;-1.290;2022-07-06T10:27:10;101336.70;;;22.57;62.77
28027;BME280;15344;52.342;-1.290;2022-07-06T10:29:35;101336.12;;;22.93;60.60
28027;BME280;15344;52.342;-1.290;2022-07-06T10:32:00;101343.18;;;22.49;61.25
28027;BME280;15344;52.342;-1.290;2022-07-06T10:34:25;101342.59;;;23.50;60.18
28027;BME280;15344;52.342;-1.290;2022-07-06T10:36:51;101339.18;;;21.59;64.23
28027;BME280;15344;52.342;-1.290;2022-07-06T10:39:14;101343.18;;;19.96;72.22
28027;BME280;15344;52.342;-1.290;2022-07-06T10:41:40;101343.70;;;20.59;72.11
28027;BME280;15344;52.342;-1.290;2022-07-06T10:46:34;101334.92;;;22.61;65.96
28027;BME280;15344;52.342;-1.290;2022-07-06T10:48:56;101345.20;;;20.56;67.93
28027;BME280;15344;52.342;-1.290;2022-07-06T10:51:24;101344.06;;;21.99;65.42
28027;BME280;15344;52.342;-1.290;2022-07-06T10:53:45;101343.12;;;21.65;69.02
28027;BME280;15344;52.342;-1.290;2022-07-06T10:56:11;101343.65;;;22.46;64.45
28027;BME280;15344;52.342;-1.290;2022-07-06T11:01:00;101340.15;;;22.20;65.12
28027;BME280;15344;52.342;-1.290;2022-07-06T11:03:30;101342.21;;;22.82;63.46
28027;BME280;15344;52.342;-1.290;2022-07-06T11:05:57;101335.17;;;22.78;62.11
28027;BME280;15344;52.342;-1.290;2022-07-06T11:08:15;101334.90;;;22.28;63.29
28027;BME280;15344;52.342;-1.290;2022-07-06T11:10:46;101335.82;;;21.16;68.25
28027;BME280;15344;52.342;-1.290;2022-07-06T11:13:05;101333.45;;;22.76;63.03
28027;BME280;15344;52.342;-1.290;2022-07-06T11:20:21;101333.19;;;23.25;58.86
28027;BME280;15344;52.342;-1.290;2022-07-06T11:22:45;101324.50;;;23.21;59.47
28027;BME280;15344;52.342;-1.290;2022-07-06T11:25:10;101317.13;;;24.57;57.33
28027;BME280;15344;52.342;-1.290;2022-07-06T11:27:35;101322.93;;;24.48;58.34
28027;BME280;15344;52.342;-1.290;2022-07-06T11:30:01;101322.85;;;23.44;60.34
28027;BME280;15344;52.342;-1.290;2022-07-06T11:32:27;101314.30;;;24.66;57.66
28027;BME280;15344;52.342;-1.290;2022-07-06T11:34:53;101317.83;;;23.72;59.43
28027;BME280;15344;52.342;-1.290;2022-07-06T11:37:19;101306.47;;;24.11;58.48
28027;BME280;15344;52.342;-1.290;2022-07-06T11:39:45;101302.28;;;24.62;59.29
28027;BME280;15344;52.342;-1.290;2022-07-06T11:42:13;101310.29;;;25.36;54.72
28027;BME280;15344;52.342;-1.290;2022-07-06T11:44:37;101305.08;;;24.71;55.07
28027;BME280;15344;52.342;-1.290;2022-07-06T11:47:02;101303.73;;;24.58;55.11
28027;BME280;15344;52.342;-1.290;2022-07-06T11:49:29;101305.03;;;24.09;57.70
28027;BME280;15344;52.342;-1.290;2022-07-06T11:51:54;101301.51;;;25.08;53.90
28027;BME280;15344;52.342;-1.290;2022-07-06T11:54:20;101296.88;;;25.35;54.70
28027;BME280;15344;52.342;-1.290;2022-07-06T11:56:47;101291.30;;;25.14;56.65
28027;BME280;15344;52.342;-1.290;2022-07-06T11:59:11;101287.98;;;25.21;57.83
28027;BME280;15344;52.342;-1.290;2022-07-06T12:01:37;101285.21;;;25.13;56.92
28027;BME280;15344;52.342;-1.290;2022-07-06T12:04:03;101274.19;;;25.32;53.01
28027;BME280;15344;52.342;-1.290;2022-07-06T12:06:28;101271.25;;;24.53;49.93
28027;BME280;15344;52.342;-1.290;2022-07-06T12:08:56;101265.09;;;25.51;47.99
28027;BME280;15344;52.342;-1.290;2022-07-06T12:11:21;101274.41;;;25.57;49.11
28027;BME280;15344;52.342;-1.290;2022-07-06T12:13:46;101271.01;;;23.72;53.41
28027;BME280;15344;52.342;-1.290;2022-07-06T12:16:12;101274.10;;;24.90;50.66
28027;BME280;15344;52.342;-1.290;2022-07-06T12:18:38;101278.40;;;25.02;54.11
28027;BME280;15344;52.342;-1.290;2022-07-06T12:21:04;101281.06;;;25.27;51.65
28027;BME280;15344;52.342;-1.290;2022-07-06T12:25:55;101283.14;;;25.36;50.58
28027;BME280;15344;52.342;-1.290;2022-07-06T12:28:24;101284.91;;;25.56;51.68
28027;BME280;15344;52.342;-1.290;2022-07-06T12:30:46;101282.05;;;25.01;52.01
28027;BME280;15344;52.342;-1.290;2022-07-06T12:33:14;101278.29;;;25.23;48.87
28027;BME280;15344;52.342;-1.290;2022-07-06T12:35:38;101281.22;;;23.88;52.72
28027;BME280;15344;52.342;-1.290;2022-07-06T12:38:04;101278.54;;;24.09;50.20
28027;BME280;15344;52.342;-1.290;2022-07-06T12:40:30;101278.29;;;24.76;51.04
28027;BME280;15344;52.342;-1.290;2022-07-06T12:42:56;101275.67;;;23.66;52.63